createdAt,value
2022-11-16T00:02:11.965Z,19.50
2022-11-16T00:04:38.865Z,18.60
2022-11-16T00:07:06.229Z,25.33
2022-11-16T00:09:33.297Z,16.40
2022-11-16T00:12:01.396Z,19.85
2022-11-16T00:14:29.192Z,18.13
2022-11-16T00:16:56.154Z,27.17
2022-11-16T00:19:23.260Z,21.23
2022-11-16T00:21:50.007Z,20.52
2022-11-16T00:24:17.523Z,19.08
2022-11-16T00:26:44.000Z,17.48
2022-11-16T00:29:13.739Z,17.02
2022-11-16T00:31:40.684Z,20.67
2022-11-16T00:34:07.169Z,29.55
2022-11-16T00:36:33.675Z,26.05
2022-11-16T00:39:00.118Z,24.35
2022-11-16T00:41:26.612Z,30.00
2022-11-16T00:43:53.175Z,20.20
2022-11-16T00:46:20.636Z,20.50
2022-11-16T00:48:47.170Z,16.98
2022-11-16T00:51:13.754Z,26.25
2022-11-16T00:53:41.435Z,28.58
2022-11-16T00:56:08.116Z,23.40
2022-11-16T00:58:41.187Z,22.48
2022-11-16T01:01:11.225Z,27.95
2022-11-16T01:03:38.143Z,39.40
2022-11-16T01:06:05.593Z,19.95
2022-11-16T01:08:32.594Z,23.40
2022-11-16T01:11:21.397Z,26.23
2022-11-16T01:13:48.256Z,27.20
2022-11-16T01:16:19.023Z,29.27
2022-11-16T01:18:49.344Z,26.35
2022-11-16T01:21:16.487Z,27.50
2022-11-16T01:23:43.855Z,32.38
2022-11-16T01:26:10.329Z,29.40
2022-11-16T01:28:37.865Z,29.75
2022-11-16T01:31:06.128Z,27.80
2022-11-16T01:33:35.713Z,25.38
2022-11-16T01:36:02.356Z,31.75
2022-11-16T01:38:30.132Z,34.38
2022-11-16T01:40:57.913Z,26.05
2022-11-16T01:43:29.216Z,36.33
2022-11-16T01:46:01.723Z,27.95
2022-11-16T01:48:30.584Z,27.45
2022-11-16T01:50:58.037Z,25.95
2022-11-16T01:53:24.909Z,27.63
2022-11-16T01:55:55.707Z,28.88
2022-11-16T01:58:27.538Z,31.90
2022-11-16T02:01:03.260Z,23.42
2022-11-16T02:03:38.582Z,24.50
2022-11-16T02:06:05.201Z,25.58
2022-11-16T02:09:05.221Z,31.35
2022-11-16T02:11:48.010Z,32.78
2022-11-16T02:14:24.460Z,36.15
2022-11-16T02:16:51.754Z,27.30
2022-11-16T02:19:31.615Z,35.90
2022-11-16T02:22:05.099Z,52.10
2022-11-16T02:24:47.091Z,34.58
2022-11-16T02:27:32.380Z,52.70
2022-11-16T02:29:59.065Z,34.55
2022-11-16T02:32:25.514Z,29.85
2022-11-16T02:35:10.767Z,28.35
2022-11-16T02:37:43.906Z,27.80
2022-11-16T02:40:11.678Z,35.75
2022-11-16T02:42:40.389Z,38.25
2022-11-16T02:45:08.556Z,32.08
2022-11-16T02:47:35.145Z,48.00
2022-11-16T02:50:11.337Z,32.10
2022-11-16T02:52:38.787Z,44.97
2022-11-16T02:55:08.731Z,35.90
2022-11-16T02:57:35.218Z,27.67
2022-11-16T03:00:02.351Z,35.17
2022-11-16T03:02:34.438Z,36.25
2022-11-16T03:05:10.049Z,34.60
2022-11-16T03:07:48.325Z,48.85
2022-11-16T03:10:36.455Z,50.10
2022-11-16T03:13:05.561Z,35.17
2022-11-16T03:15:33.097Z,33.53
2022-11-16T03:18:00.150Z,49.20
2022-11-16T03:20:27.972Z,30.83
2022-11-16T03:22:56.413Z,35.00
2022-11-16T03:25:25.976Z,33.72
2022-11-16T03:28:12.755Z,27.73
2022-11-16T03:30:46.993Z,42.05
2022-11-16T03:33:22.071Z,41.85
2022-11-16T03:36:01.351Z,39.75
2022-11-16T03:38:31.386Z,39.75
2022-11-16T03:41:00.261Z,55.17
2022-11-16T03:43:30.431Z,48.15
2022-11-16T03:45:57.451Z,41.50
2022-11-16T03:48:24.261Z,49.03
2022-11-16T03:50:51.616Z,38.50
2022-11-16T03:53:19.072Z,46.80
2022-11-16T03:55:49.842Z,35.05
2022-11-16T03:58:18.605Z,42.15
2022-11-16T04:00:45.350Z,31.40
2022-11-16T04:03:11.935Z,36.53
2022-11-16T04:05:56.869Z,34.33
2022-11-16T04:08:43.543Z,51.35
2022-11-16T04:11:32.333Z,34.15
2022-11-16T04:14:17.647Z,34.72
2022-11-16T04:17:02.845Z,42.47
2022-11-16T04:19:48.019Z,44.65
2022-11-16T04:22:40.534Z,31.90
2022-11-16T04:25:30.698Z,36.60
2022-11-16T04:28:18.634Z,31.83
2022-11-16T04:31:15.403Z,32.35
2022-11-16T04:34:06.177Z,26.35
2022-11-16T04:36:51.483Z,36.88
2022-11-16T04:39:17.948Z,25.77
2022-11-16T04:42:03.674Z,29.67
2022-11-16T04:44:53.465Z,31.25
2022-11-16T04:47:20.321Z,25.70
2022-11-16T04:49:47.646Z,20.88
2022-11-16T04:52:14.208Z,22.42
2022-11-16T04:54:41.874Z,21.73
2022-11-16T04:57:09.320Z,25.05
2022-11-16T04:59:35.793Z,22.65
2022-11-16T05:02:08.921Z,21.90
2022-11-16T05:04:43.239Z,22.80
2022-11-16T05:07:11.940Z,19.38
2022-11-16T05:09:46.752Z,18.70
2022-11-16T05:12:15.262Z,14.88
2022-11-16T05:14:43.486Z,17.05
2022-11-16T05:17:10.500Z,17.05
2022-11-16T05:19:55.659Z,16.13
2022-11-16T05:22:24.518Z,12.88
2022-11-16T05:24:55.111Z,11.40
2022-11-16T05:27:25.554Z,11.23
2022-11-16T05:29:52.756Z,8.07
2022-11-16T05:32:22.289Z,8.43
2022-11-16T05:34:49.627Z,9.90
2022-11-16T05:37:17.721Z,11.95
2022-11-16T05:39:45.153Z,8.00
2022-11-16T05:42:13.091Z,6.88
2022-11-16T05:44:39.583Z,7.60
2022-11-16T05:47:06.315Z,7.18
2022-11-16T05:49:33.587Z,7.15
2022-11-16T05:52:00.120Z,8.32
2022-11-16T05:54:31.283Z,6.32
2022-11-16T05:56:57.804Z,5.53
2022-11-16T05:59:24.570Z,5.63
2022-11-16T06:01:54.184Z,7.38
2022-11-16T06:04:24.501Z,11.45
2022-11-16T06:06:52.915Z,6.00
2022-11-16T06:09:19.508Z,6.10
2022-11-16T06:11:47.878Z,5.88
2022-11-16T06:14:17.244Z,5.97
2022-11-16T06:16:44.140Z,6.75
2022-11-16T06:19:10.951Z,7.68
2022-11-16T06:21:37.589Z,8.15
2022-11-16T06:24:09.415Z,13.88
2022-11-16T06:26:37.879Z,8.02
2022-11-16T06:29:05.426Z,8.20
2022-11-16T06:31:33.671Z,7.85
2022-11-16T06:34:01.989Z,6.78
2022-11-16T06:36:29.241Z,8.60
2022-11-16T06:38:58.962Z,9.82
2022-11-16T06:41:40.213Z,7.55
2022-11-16T06:44:08.955Z,7.65
2022-11-16T06:46:38.598Z,8.70
2022-11-16T06:49:07.840Z,8.85
2022-11-16T06:51:35.661Z,6.95
2022-11-16T06:54:02.300Z,7.35
2022-11-16T06:56:29.247Z,10.55
2022-11-16T06:58:57.633Z,7.70
2022-11-16T07:01:26.761Z,7.82
2022-11-16T07:03:58.828Z,11.65
2022-11-16T07:06:25.779Z,6.45
2022-11-16T07:08:52.266Z,12.98
2022-11-16T07:11:23.792Z,8.15
2022-11-16T07:13:50.355Z,10.40
2022-11-16T07:16:17.000Z,9.57
2022-11-16T07:18:50.905Z,7.25
2022-11-16T07:21:18.145Z,11.18
2022-11-16T07:23:45.420Z,8.02
2022-11-16T07:26:17.377Z,7.75
2022-11-16T07:28:49.729Z,12.43
2022-11-16T07:31:19.901Z,9.50
2022-11-16T07:33:46.885Z,10.35
2022-11-16T07:36:28.269Z,6.93
2022-11-16T07:38:56.006Z,6.60
2022-11-16T07:41:23.868Z,6.20
2022-11-16T07:44:02.878Z,10.95
2022-11-16T07:46:48.503Z,11.40
2022-11-16T07:49:17.684Z,9.13
2022-11-16T07:52:03.205Z,10.02
2022-11-16T07:54:41.257Z,9.13
2022-11-16T07:57:08.227Z,9.77
2022-11-16T07:59:34.888Z,8.00
2022-11-16T08:02:03.406Z,11.38
2022-11-16T08:04:30.888Z,6.10
2022-11-16T08:06:58.444Z,7.38
2022-11-16T08:09:27.547Z,10.77
2022-11-16T08:11:54.888Z,21.27
2022-11-16T08:14:22.593Z,19.50
2022-11-16T08:16:50.817Z,19.55
2022-11-16T08:19:19.504Z,15.27
2022-11-16T08:21:46.169Z,9.82
2022-11-16T08:24:14.647Z,5.75
2022-11-16T08:26:42.879Z,6.93
2022-11-16T08:29:13.022Z,6.05
2022-11-16T08:31:44.302Z,5.80
2022-11-16T08:34:13.824Z,5.50
2022-11-16T08:36:44.582Z,8.15
2022-11-16T08:39:12.215Z,5.57
2022-11-16T08:41:38.863Z,6.05
2022-11-16T08:44:07.775Z,6.90
2022-11-16T08:46:37.664Z,6.13
2022-11-16T08:49:17.739Z,5.18
2022-11-16T08:51:44.249Z,6.57
2022-11-16T08:54:10.803Z,5.45
2022-11-16T08:56:40.187Z,5.13
2022-11-16T08:59:06.894Z,5.28
2022-11-16T09:01:33.754Z,3.97
2022-11-16T09:04:00.401Z,4.47
2022-11-16T09:06:27.563Z,3.97
2022-11-16T09:08:54.318Z,4.70
2022-11-16T09:11:22.531Z,4.25
2022-11-16T09:13:50.019Z,4.35
2022-11-16T09:16:17.000Z,4.57
2022-11-16T09:18:48.062Z,4.22
2022-11-16T09:21:19.811Z,3.53
2022-11-16T09:23:47.988Z,4.65
2022-11-16T09:26:14.913Z,4.60
2022-11-16T09:28:45.080Z,4.38
2022-11-16T09:31:12.972Z,3.90
2022-11-16T09:33:41.649Z,3.88
2022-11-16T09:36:09.440Z,4.05
2022-11-16T09:39:13.926Z,3.58
2022-11-16T09:41:37.091Z,3.53
2022-11-16T09:44:03.579Z,3.45
2022-11-16T09:46:36.510Z,3.95
2022-11-16T09:49:16.918Z,3.25
2022-11-16T09:51:46.599Z,2.58
2022-11-16T09:54:16.344Z,2.85
2022-11-16T09:56:43.943Z,3.38
2022-11-16T09:59:25.875Z,3.47
2022-11-16T10:02:21.686Z,3.75
2022-11-16T10:04:58.638Z,3.42
2022-11-16T10:07:42.095Z,3.65
2022-11-16T10:10:18.559Z,3.63
2022-11-16T10:13:08.646Z,4.18
2022-11-16T10:15:40.927Z,4.20
2022-11-16T10:18:25.861Z,3.58
2022-11-16T10:21:10.809Z,3.80
2022-11-16T10:23:56.438Z,4.50
2022-11-16T10:26:32.621Z,3.65
2022-11-16T10:29:11.304Z,3.10
2022-11-16T10:31:54.285Z,3.47
2022-11-16T10:34:26.288Z,3.13
2022-11-16T10:37:03.252Z,3.38
2022-11-16T10:39:31.247Z,3.30
2022-11-16T10:42:06.096Z,3.38
2022-11-16T10:45:03.176Z,3.63
2022-11-16T10:47:42.631Z,2.35
2022-11-16T10:50:19.897Z,3.35
2022-11-16T10:52:46.451Z,2.92
2022-11-16T10:55:21.653Z,3.25
2022-11-16T10:57:58.828Z,2.60
2022-11-16T11:00:34.740Z,2.60
2022-11-16T11:03:01.494Z,2.65
2022-11-16T11:05:28.095Z,2.45
2022-11-16T11:08:10.139Z,3.05
2022-11-16T11:10:40.588Z,2.40
2022-11-16T11:13:12.019Z,2.67
2022-11-16T11:15:39.739Z,2.20
2022-11-16T11:18:24.383Z,3.33
2022-11-16T11:21:08.160Z,2.00
2022-11-16T11:23:43.452Z,2.10
2022-11-16T11:26:36.475Z,2.30
2022-11-16T11:29:09.427Z,2.63
2022-11-16T11:31:40.252Z,2.30
2022-11-16T11:34:06.738Z,2.05
2022-11-16T11:36:40.322Z,2.03
2022-11-16T11:39:08.627Z,1.90
2022-11-16T11:41:37.379Z,2.33
2022-11-16T11:44:05.655Z,2.00
2022-11-16T11:47:28.531Z,2.40
2022-11-16T11:49:33.809Z,1.95
2022-11-16T11:52:05.046Z,2.10
2022-11-16T11:54:46.114Z,2.13
2022-11-16T11:57:15.648Z,2.40
2022-11-16T11:59:42.135Z,1.90
2022-11-16T12:02:17.461Z,1.83
2022-11-16T12:04:54.147Z,2.25
2022-11-16T12:07:32.764Z,2.20
2022-11-16T12:10:11.218Z,1.80
2022-11-16T12:12:42.973Z,1.90
2022-11-16T12:15:24.458Z,2.40
2022-11-16T12:17:58.014Z,1.42
2022-11-16T12:20:39.026Z,1.73
2022-11-16T12:23:18.502Z,1.77
2022-11-16T12:26:03.068Z,1.77
2022-11-16T12:28:55.649Z,1.90
2022-11-16T12:31:40.843Z,1.77
2022-11-16T12:34:07.450Z,1.58
2022-11-16T12:36:52.112Z,1.83
2022-11-16T12:39:33.773Z,1.60
2022-11-16T12:42:22.086Z,1.80
2022-11-16T12:44:57.847Z,2.00
2022-11-16T12:47:33.326Z,1.50
2022-11-16T12:50:02.710Z,1.90
2022-11-16T12:52:29.239Z,4.40
2022-11-16T12:55:24.857Z,2.42
2022-11-16T12:57:50.955Z,1.95
2022-11-16T13:00:18.602Z,1.48
2022-11-16T13:03:04.133Z,1.17
2022-11-16T13:05:33.397Z,1.40
2022-11-16T13:08:04.829Z,1.23
2022-11-16T13:10:34.557Z,1.45
2022-11-16T13:13:30.152Z,1.30
2022-11-16T13:15:48.997Z,1.35
2022-11-16T13:18:16.909Z,1.30
2022-11-16T13:20:46.425Z,1.27
2022-11-16T13:23:44.024Z,1.25
2022-11-16T13:26:20.832Z,1.20
2022-11-16T13:29:07.600Z,1.25
2022-11-16T13:31:38.353Z,1.30
2022-11-16T13:34:13.953Z,1.15
2022-11-16T13:36:43.790Z,1.73
2022-11-16T13:39:13.756Z,3.03
2022-11-16T13:41:59.646Z,1.92
2022-11-16T13:44:28.370Z,2.72
2022-11-16T13:47:04.752Z,3.78
2022-11-16T13:49:48.887Z,1.63
2022-11-16T13:52:26.358Z,3.75
2022-11-16T13:54:56.811Z,3.22
2022-11-16T13:57:23.656Z,1.40
2022-11-16T13:59:54.062Z,1.70
2022-11-16T14:02:34.340Z,1.67
2022-11-16T14:05:01.875Z,1.83
2022-11-16T14:07:36.431Z,1.80
2022-11-16T14:10:08.930Z,1.73
2022-11-16T14:12:38.774Z,2.45
2022-11-16T14:15:11.770Z,1.83
2022-11-16T14:17:51.629Z,1.80
2022-11-16T14:20:34.316Z,1.98
2022-11-16T14:23:11.727Z,1.67
2022-11-16T14:25:38.204Z,1.60
2022-11-16T14:28:04.653Z,1.92
2022-11-16T14:30:35.293Z,1.55
2022-11-16T14:33:01.917Z,1.83
2022-11-16T14:35:30.310Z,1.55
2022-11-16T14:38:04.595Z,2.05
2022-11-16T14:40:43.231Z,1.60
2022-11-16T14:43:16.984Z,1.67
2022-11-16T14:45:46.726Z,1.17
2022-11-16T14:48:15.244Z,1.60
2022-11-16T14:50:43.312Z,1.50
2022-11-16T14:53:10.885Z,1.50
2022-11-16T14:55:41.121Z,1.17
2022-11-16T14:58:07.733Z,1.60
2022-11-16T15:00:34.649Z,2.03
2022-11-16T15:03:02.965Z,3.15
2022-11-16T15:05:32.909Z,7.47
2022-11-16T15:07:59.916Z,4.78
2022-11-16T15:10:28.111Z,6.50
2022-11-16T15:12:57.929Z,8.32
2022-11-16T15:15:27.490Z,4.70
2022-11-16T15:18:00.523Z,7.43
2022-11-16T15:20:29.932Z,11.65
2022-11-16T15:23:00.105Z,4.22
2022-11-16T15:25:26.693Z,10.80
2022-11-16T15:27:53.596Z,7.90
2022-11-16T15:30:21.696Z,2.55
2022-11-16T15:32:49.051Z,4.82
2022-11-16T15:35:18.763Z,6.60
2022-11-16T15:37:45.317Z,2.67
2022-11-16T15:40:12.375Z,3.00
2022-11-16T15:42:39.831Z,3.20
2022-11-16T15:45:11.616Z,2.85
2022-11-16T15:47:42.260Z,2.55
2022-11-16T15:50:15.659Z,1.83
2022-11-16T15:52:43.577Z,2.90
2022-11-16T15:55:30.581Z,2.25
2022-11-16T15:58:12.123Z,2.08
2022-11-16T16:00:38.734Z,1.73
2022-11-16T16:03:06.491Z,2.15
2022-11-16T16:05:33.856Z,2.03
2022-11-16T16:08:00.322Z,2.42
2022-11-16T16:10:27.164Z,3.70
2022-11-16T16:12:55.073Z,4.20
2022-11-16T16:15:25.772Z,3.40
2022-11-16T16:17:53.921Z,3.28
2022-11-16T16:20:24.436Z,3.50
2022-11-16T16:22:51.021Z,3.50
2022-11-16T16:25:31.440Z,2.85
2022-11-16T16:27:58.844Z,4.00
2022-11-16T16:30:25.819Z,2.47
2022-11-16T16:32:52.886Z,2.50
2022-11-16T16:35:20.875Z,2.50
2022-11-16T16:37:51.361Z,2.47
2022-11-16T16:40:18.575Z,2.67
2022-11-16T16:42:50.737Z,2.42
2022-11-16T16:45:19.263Z,2.58
2022-11-16T16:47:45.801Z,2.55
2022-11-16T16:50:12.850Z,2.20
2022-11-16T16:52:39.791Z,2.20
2022-11-16T16:55:06.492Z,2.58
2022-11-16T16:57:32.995Z,2.22
2022-11-16T16:59:59.537Z,3.30
2022-11-16T17:02:26.807Z,2.67
2022-11-16T17:04:53.469Z,2.58
2022-11-16T17:07:20.002Z,2.88
2022-11-16T17:09:46.553Z,3.22
2022-11-16T17:12:13.091Z,2.75
2022-11-16T17:14:39.542Z,2.65
2022-11-16T17:17:06.060Z,2.70
2022-11-16T17:19:32.592Z,2.42
2022-11-16T17:21:59.946Z,2.95
2022-11-16T17:24:26.406Z,3.65
2022-11-16T17:26:53.394Z,3.28
2022-11-16T17:29:19.873Z,3.42
2022-11-16T17:31:47.035Z,3.50
2022-11-16T17:34:14.333Z,4.32
2022-11-16T17:36:41.481Z,3.63
2022-11-16T17:39:08.157Z,3.08
2022-11-16T17:41:34.864Z,3.70
2022-11-16T17:44:01.363Z,3.95
2022-11-16T17:46:28.982Z,3.70
2022-11-16T17:48:55.676Z,4.45
2022-11-16T17:51:23.847Z,4.43
2022-11-16T17:53:50.516Z,4.53
2022-11-16T17:56:18.411Z,4.30
2022-11-16T17:58:45.351Z,3.92
2022-11-16T18:01:12.476Z,3.83
2022-11-16T18:03:39.381Z,4.22
2022-11-16T18:06:11.095Z,4.38
2022-11-16T18:08:37.852Z,3.85
2022-11-16T18:11:14.600Z,3.95
2022-11-16T18:13:41.146Z,3.78
2022-11-16T18:16:10.385Z,3.67
2022-11-16T18:18:37.846Z,3.42
2022-11-16T18:21:04.504Z,3.78
2022-11-16T18:23:31.180Z,3.67
2022-11-16T18:25:57.750Z,3.85
2022-11-16T18:28:24.361Z,4.43
2022-11-16T18:30:50.822Z,4.03
2022-11-16T18:33:17.390Z,4.97
2022-11-16T18:35:44.287Z,4.32
2022-11-16T18:38:13.461Z,4.80
2022-11-16T18:40:40.297Z,4.55
2022-11-16T18:43:11.516Z,4.32
2022-11-16T18:45:38.135Z,4.00
2022-11-16T18:48:04.661Z,3.72
2022-11-16T18:50:31.120Z,3.90
2022-11-16T18:52:57.557Z,3.75
2022-11-16T18:55:23.987Z,4.00
2022-11-16T18:57:50.553Z,3.65
2022-11-16T19:00:19.130Z,4.40
2022-11-16T19:02:45.648Z,4.85
2022-11-16T19:05:12.065Z,4.80
2022-11-16T19:07:38.708Z,4.38
2022-11-16T19:10:05.512Z,4.50
2022-11-16T19:12:31.958Z,4.60
2022-11-16T19:14:58.461Z,4.40
2022-11-16T19:17:25.208Z,4.15
2022-11-16T19:19:51.647Z,4.35
2022-11-16T19:22:19.593Z,4.22
2022-11-16T19:24:46.208Z,4.10
2022-11-16T19:27:12.660Z,6.05
2022-11-16T19:29:39.189Z,5.07
2022-11-16T19:32:05.693Z,5.25
2022-11-16T19:34:33.447Z,6.30
2022-11-16T19:37:00.201Z,6.47
2022-11-16T19:39:26.779Z,5.68
2022-11-16T19:41:53.307Z,6.90
2022-11-16T19:44:20.035Z,5.88
2022-11-16T19:46:46.577Z,5.25
2022-11-16T19:49:19.979Z,6.15
2022-11-16T19:51:46.910Z,5.70
2022-11-16T19:54:16.373Z,6.80
2022-11-16T19:56:43.147Z,6.45
2022-11-16T19:59:09.734Z,6.75
2022-11-16T20:01:36.312Z,6.03
2022-11-16T20:04:03.609Z,5.43
2022-11-16T20:06:34.686Z,6.25
2022-11-16T20:09:04.044Z,5.45
2022-11-16T20:11:31.537Z,5.78
2022-11-16T20:13:58.415Z,6.35
2022-11-16T20:16:26.018Z,5.95
2022-11-16T20:18:53.045Z,6.18
2022-11-16T20:21:22.145Z,7.60
2022-11-16T20:23:48.967Z,5.85
2022-11-16T20:26:15.603Z,6.80
2022-11-16T20:28:42.710Z,5.28
2022-11-16T20:31:15.446Z,5.55
2022-11-16T20:33:42.437Z,4.32
2022-11-16T20:36:10.447Z,5.18
2022-11-16T20:38:37.736Z,5.53
2022-11-16T20:41:14.256Z,5.85
2022-11-16T20:43:41.223Z,5.90
2022-11-16T20:46:08.522Z,5.68
2022-11-16T20:48:35.088Z,6.13
2022-11-16T20:51:01.583Z,5.60
2022-11-16T20:53:28.020Z,5.30
2022-11-16T20:55:54.692Z,5.88
2022-11-16T20:58:23.559Z,5.60
2022-11-16T21:00:50.468Z,6.13
2022-11-16T21:03:16.989Z,6.00
2022-11-16T21:05:44.369Z,5.07
2022-11-16T21:08:11.479Z,5.88
2022-11-16T21:10:38.597Z,7.65
2022-11-16T21:13:24.354Z,6.93
2022-11-16T21:15:54.869Z,4.90
2022-11-16T21:18:23.353Z,5.70
2022-11-16T21:20:59.300Z,4.72
2022-11-16T21:23:26.397Z,5.50
2022-11-16T21:25:52.916Z,5.50
2022-11-16T21:28:24.226Z,6.38
2022-11-16T21:30:58.908Z,6.93
2022-11-16T21:33:25.698Z,6.47
2022-11-16T21:35:55.403Z,4.78
2022-11-16T21:38:22.643Z,4.10
2022-11-16T21:40:49.454Z,4.38
2022-11-16T21:43:16.490Z,4.45
2022-11-16T21:45:47.126Z,3.90
2022-11-16T21:48:13.942Z,4.22
2022-11-16T21:50:40.842Z,3.97
2022-11-16T21:53:07.844Z,3.92
2022-11-16T21:55:34.627Z,4.03
2022-11-16T21:58:03.411Z,4.15
2022-11-16T22:00:30.106Z,4.65
2022-11-16T22:02:57.025Z,3.45
2022-11-16T22:05:42.423Z,3.83
2022-11-16T22:08:11.506Z,3.38
2022-11-16T22:10:38.873Z,3.63
2022-11-16T22:13:05.418Z,3.80
2022-11-16T22:15:31.857Z,3.50
2022-11-16T22:17:58.328Z,3.75
2022-11-16T22:20:24.886Z,3.47
2022-11-16T22:22:51.410Z,3.58
2022-11-16T22:25:18.552Z,3.55
2022-11-16T22:28:13.446Z,3.30
2022-11-16T22:30:33.117Z,3.13
2022-11-16T22:32:59.583Z,2.95
2022-11-16T22:35:25.983Z,3.40
2022-11-16T22:37:52.493Z,3.42
2022-11-16T22:40:18.956Z,3.85
2022-11-16T22:42:45.816Z,3.50
2022-11-16T22:45:12.383Z,4.10
2022-11-16T22:47:38.850Z,4.20
2022-11-16T22:50:05.537Z,3.65
2022-11-16T22:52:32.095Z,4.07
2022-11-16T22:54:58.532Z,3.70
2022-11-16T22:57:25.070Z,4.03
2022-11-16T22:59:51.601Z,4.03
2022-11-16T23:02:18.074Z,3.97
2022-11-16T23:04:44.563Z,4.60
2022-11-16T23:07:11.100Z,4.25
2022-11-16T23:09:37.597Z,5.30
2022-11-16T23:12:23.029Z,5.82
2022-11-16T23:15:08.105Z,4.70
2022-11-16T23:17:34.627Z,4.25
2022-11-16T23:20:19.783Z,4.57
2022-11-16T23:23:04.734Z,5.60
2022-11-16T23:25:50.929Z,5.05
2022-11-16T23:28:18.325Z,5.18
2022-11-16T23:30:44.791Z,4.40
2022-11-16T23:33:13.726Z,4.88
2022-11-16T23:35:40.416Z,4.90
2022-11-16T23:38:07.206Z,5.35
2022-11-16T23:40:38.062Z,5.55
2022-11-16T23:43:25.165Z,5.45
2022-11-16T23:45:51.620Z,6.20
2022-11-16T23:48:18.603Z,5.38
2022-11-16T23:50:45.683Z,7.18
2022-11-16T23:53:12.368Z,5.88
2022-11-16T23:55:39.607Z,4.63
2022-11-16T23:58:06.829Z,5.00
